sensor_id;sensor_type;location;lat;lon;timestamp;pressure;altitude;pressure_sealevel;temperature;humidity
76095;BME280;64821;13.710;100.604;2023-03-05T00:00:07;101613.63;;;32.78;34.98
76095;BME280;64821;13.710;100.604;2023-03-05T00:01:12;101645.38;;;32.98;34.70
76095;BME280;64821;13.710;100.604;2023-03-05T00:02:16;101640.06;;;33.01;35.01
76095;BME280;64821;13.710;100.604;2023-03-05T00:03:20;101640.56;;;33.03;34.43
76095;BME280;64821;13.710;100.604;2023-03-05T00:04:24;101644.94;;;33.04;34.59
76095;BME280;64821;13.710;100.604;2023-03-05T00:05:28;101638.25;;;32.97;35.42
76095;BME280;64821;13.710;100.604;2023-03-05T00:06:32;101647.19;;;33.02;35.01
76095;BME280;64821;13.710;100.604;2023-03-05T00:07:36;101648.28;;;33.01;34.96
76095;BME280;64821;13.710;100.604;2023-03-05T00:08:40;101649.63;;;33.04;35.12
76095;BME280;64821;13.710;100.604;2023-03-05T00:09:43;101648.00;;;33.03;35.51
76095;BME280;64821;13.710;100.604;2023-03-05T00:10:55;101658.78;;;32.99;35.47
76095;BME280;64821;13.710;100.604;2023-03-05T00:12:00;101654.50;;;32.93;35.30
76095;BME280;64821;13.710;100.604;2023-03-05T00:13:04;101656.34;;;32.98;35.35
76095;BME280;64821;13.710;100.604;2023-03-05T00:14:08;101658.16;;;33.02;34.80
76095;BME280;64821;13.710;100.604;2023-03-05T00:15:12;101663.34;;;33.04;35.10
76095;BME280;64821;13.710;100.604;2023-03-05T00:16:16;101659.78;;;33.03;34.49
76095;BME280;64821;13.710;100.604;2023-03-05T00:17:20;101650.22;;;33.01;34.82
76095;BME280;64821;13.710;100.604;2023-03-05T00:18:24;101638.53;;;32.95;34.76
76095;BME280;64821;13.710;100.604;2023-03-05T00:19:27;101667.81;;;33.14;35.05
76095;BME280;64821;13.710;100.604;2023-03-05T00:20:33;101676.59;;;33.16;35.28
76095;BME280;64821;13.710;100.604;2023-03-05T00:21:38;101673.84;;;33.16;35.47
76095;BME280;64821;13.710;100.604;2023-03-05T00:22:42;101671.00;;;33.07;35.59
76095;BME280;64821;13.710;100.604;2023-03-05T00:23:45;101670.78;;;33.03;35.63
76095;BME280;64821;13.710;100.604;2023-03-05T00:24:50;101677.88;;;33.04;35.52
76095;BME280;64821;13.710;100.604;2023-03-05T00:25:53;101682.78;;;33.07;35.43
76095;BME280;64821;13.710;100.604;2023-03-05T00:26:59;101682.16;;;33.11;35.28
76095;BME280;64821;13.710;100.604;2023-03-05T00:28:03;101690.31;;;33.16;35.47
76095;BME280;64821;13.710;100.604;2023-03-05T00:29:07;101687.88;;;33.14;35.35
76095;BME280;64821;13.710;100.604;2023-03-05T00:30:12;101696.91;;;33.15;35.52
76095;BME280;64821;13.710;100.604;2023-03-05T00:31:16;101700.25;;;33.12;35.01
76095;BME280;64821;13.710;100.604;2023-03-05T00:32:20;101686.44;;;33.03;35.24
76095;BME280;64821;13.710;100.604;2023-03-05T00:33:24;101704.94;;;32.97;35.39
76095;BME280;64821;13.710;100.604;2023-03-05T00:34:28;101702.31;;;33.06;34.85
76095;BME280;64821;13.710;100.604;2023-03-05T00:35:37;101705.25;;;33.10;35.08
76095;BME280;64821;13.710;100.604;2023-03-05T00:36:41;101713.41;;;33.15;34.88
76095;BME280;64821;13.710;100.604;2023-03-05T00:37:45;101703.75;;;33.17;35.18
76095;BME280;64821;13.710;100.604;2023-03-05T00:38:49;101716.13;;;33.15;35.17
76095;BME280;64821;13.710;100.604;2023-03-05T00:39:53;101717.78;;;33.16;35.19
76095;BME280;64821;13.710;100.604;2023-03-05T00:40:56;101713.28;;;33.06;35.74
76095;BME280;64821;13.710;100.604;2023-03-05T00:42:02;101720.03;;;32.81;35.64
76095;BME280;64821;13.710;100.604;2023-03-05T00:43:06;101723.72;;;32.90;35.47
76095;BME280;64821;13.710;100.604;2023-03-05T00:44:10;101679.13;;;32.66;35.11
76095;BME280;64821;13.710;100.604;2023-03-05T00:45:14;101721.81;;;33.04;35.00
76095;BME280;64821;13.710;100.604;2023-03-05T00:46:17;101728.63;;;33.07;34.91
76095;BME280;64821;13.710;100.604;2023-03-05T00:47:21;101719.59;;;33.06;35.22
76095;BME280;64821;13.710;100.604;2023-03-05T00:48:25;101730.09;;;33.18;34.72
76095;BME280;64821;13.710;100.604;2023-03-05T00:49:28;101728.63;;;33.21;34.51
76095;BME280;64821;13.710;100.604;2023-03-05T00:50:32;101730.00;;;33.23;34.73
76095;BME280;64821;13.710;100.604;2023-03-05T00:51:36;101741.25;;;33.22;34.59
76095;BME280;64821;13.710;100.604;2023-03-05T00:52:40;101734.47;;;33.19;34.67
76095;BME280;64821;13.710;100.604;2023-03-05T00:53:43;101737.22;;;33.19;34.51
76095;BME280;64821;13.710;100.604;2023-03-05T00:54:47;101743.97;;;33.27;34.27
76095;BME280;64821;13.710;100.604;2023-03-05T00:55:51;101739.47;;;33.31;34.40
76095;BME280;64821;13.710;100.604;2023-03-05T00:56:54;101735.81;;;33.35;34.44
76095;BME280;64821;13.710;100.604;2023-03-05T00:58:00;101742.34;;;33.39;33.80
76095;BME280;64821;13.710;100.604;2023-03-05T00:59:03;101749.63;;;33.30;33.93
76095;BME280;64821;13.710;100.604;2023-03-05T01:00:08;101747.50;;;33.27;33.85
76095;BME280;64821;13.710;100.604;2023-03-05T01:01:15;101756.22;;;33.16;34.10
76095;BME280;64821;13.710;100.604;2023-03-05T01:02:19;101749.31;;;33.18;34.06
76095;BME280;64821;13.710;100.604;2023-03-05T01:03:23;101753.59;;;33.24;34.13
76095;BME280;64821;13.710;100.604;2023-03-05T01:04:27;101748.03;;;33.11;34.09
76095;BME280;64821;13.710;100.604;2023-03-05T01:05:30;101757.38;;;33.28;33.80
76095;BME280;64821;13.710;100.604;2023-03-05T01:06:34;101758.19;;;33.29;34.32
76095;BME280;64821;13.710;100.604;2023-03-05T01:07:38;101762.16;;;33.23;34.11
76095;BME280;64821;13.710;100.604;2023-03-05T01:08:42;101757.81;;;33.03;34.14
76095;BME280;64821;13.710;100.604;2023-03-05T01:09:46;101760.78;;;33.20;33.78
76095;BME280;64821;13.710;100.604;2023-03-05T01:10:50;101764.06;;;33.22;33.69
76095;BME280;64821;13.710;100.604;2023-03-05T01:11:54;101765.97;;;33.22;33.55
76095;BME280;64821;13.710;100.604;2023-03-05T01:12:59;101769.28;;;33.37;33.63
76095;BME280;64821;13.710;100.604;2023-03-05T01:14:03;101769.91;;;33.34;33.51
76095;BME280;64821;13.710;100.604;2023-03-05T01:15:07;101768.28;;;33.47;33.52
76095;BME280;64821;13.710;100.604;2023-03-05T01:16:10;101782.03;;;33.47;33.77
76095;BME280;64821;13.710;100.604;2023-03-05T01:17:14;101768.66;;;33.40;33.45
76095;BME280;64821;13.710;100.604;2023-03-05T01:18:19;101775.31;;;33.53;33.60
76095;BME280;64821;13.710;100.604;2023-03-05T01:19:23;101773.47;;;33.62;33.14
76095;BME280;64821;13.710;100.604;2023-03-05T01:20:26;101759.94;;;33.52;33.40
76095;BME280;64821;13.710;100.604;2023-03-05T01:21:30;101776.91;;;33.40;33.50
76095;BME280;64821;13.710;100.604;2023-03-05T01:22:34;101775.69;;;33.33;33.48
76095;BME280;64821;13.710;100.604;2023-03-05T01:23:38;101784.47;;;33.49;33.68
76095;BME280;64821;13.710;100.604;2023-03-05T01:24:41;101781.44;;;33.18;33.81
76095;BME280;64821;13.710;100.604;2023-03-05T01:25:45;101778.13;;;33.34;33.58
76095;BME280;64821;13.710;100.604;2023-03-05T01:26:55;101777.22;;;33.25;33.82
76095;BME280;64821;13.710;100.604;2023-03-05T01:28:00;101786.41;;;33.48;33.17
76095;BME280;64821;13.710;100.604;2023-03-05T01:29:04;101768.88;;;33.44;33.05
76095;BME280;64821;13.710;100.604;2023-03-05T01:30:11;101787.44;;;33.66;33.22
76095;BME280;64821;13.710;100.604;2023-03-05T01:31:15;101785.31;;;33.76;32.66
76095;BME280;64821;13.710;100.604;2023-03-05T01:32:18;101782.66;;;33.85;32.57
76095;BME280;64821;13.710;100.604;2023-03-05T01:33:22;101788.56;;;33.92;32.85
76095;BME280;64821;13.710;100.604;2023-03-05T01:34:26;101782.75;;;33.94;32.75
76095;BME280;64821;13.710;100.604;2023-03-05T01:35:30;101777.25;;;33.94;32.81
76095;BME280;64821;13.710;100.604;2023-03-05T01:36:33;101786.78;;;34.10;32.65
76095;BME280;64821;13.710;100.604;2023-03-05T01:37:37;101793.91;;;34.11;31.81
76095;BME280;64821;13.710;100.604;2023-03-05T01:38:41;101794.13;;;34.01;32.32
76095;BME280;64821;13.710;100.604;2023-03-05T01:39:45;101797.63;;;34.06;31.97
76095;BME280;64821;13.710;100.604;2023-03-05T01:40:49;101792.28;;;34.10;31.95
76095;BME280;64821;13.710;100.604;2023-03-05T01:41:53;101798.31;;;34.12;32.09
76095;BME280;64821;13.710;100.604;2023-03-05T01:43:00;101808.78;;;34.10;32.23
76095;BME280;64821;13.710;100.604;2023-03-05T01:44:19;101805.47;;;33.86;32.29
76095;BME280;64821;13.710;100.604;2023-03-05T01:45:24;101790.31;;;33.88;32.13
76095;BME280;64821;13.710;100.604;2023-03-05T01:46:33;101774.41;;;33.58;31.87
76095;BME280;64821;13.710;100.604;2023-03-05T01:47:37;101812.66;;;33.68;32.45
76095;BME280;64821;13.710;100.604;2023-03-05T01:48:41;101802.50;;;33.68;32.14
76095;BME280;64821;13.710;100.604;2023-03-05T01:49:46;101805.53;;;33.67;32.50
76095;BME280;64821;13.710;100.604;2023-03-05T01:50:50;101801.69;;;33.68;32.01
76095;BME280;64821;13.710;100.604;2023-03-05T01:52:03;101811.03;;;33.67;31.66
76095;BME280;64821;13.710;100.604;2023-03-05T01:53:08;101798.75;;;33.78;31.79
76095;BME280;64821;13.710;100.604;2023-03-05T01:54:14;101808.19;;;33.72;32.39
76095;BME280;64821;13.710;100.604;2023-03-05T01:55:21;101809.38;;;33.52;32.07
76095;BME280;64821;13.710;100.604;2023-03-05T01:56:27;101798.00;;;33.72;31.76
76095;BME280;64821;13.710;100.604;2023-03-05T01:57:34;101786.50;;;33.70;31.84
76095;BME280;64821;13.710;100.604;2023-03-05T01:58:40;101816.13;;;34.01;32.27
76095;BME280;64821;13.710;100.604;2023-03-05T01:59:47;101819.59;;;33.79;31.62
76095;BME280;64821;13.710;100.604;2023-03-05T02:00:53;101814.28;;;33.55;32.39
76095;BME280;64821;13.710;100.604;2023-03-05T02:01:58;101812.44;;;33.51;31.86
76095;BME280;64821;13.710;100.604;2023-03-05T02:03:07;101803.06;;;33.38;31.91
76095;BME280;64821;13.710;100.604;2023-03-05T02:04:14;101817.34;;;33.67;32.27
76095;BME280;64821;13.710;100.604;2023-03-05T02:05:22;101825.28;;;33.69;31.49
76095;BME280;64821;13.710;100.604;2023-03-05T02:06:28;101829.09;;;33.87;31.54
76095;BME280;64821;13.710;100.604;2023-03-05T02:07:33;101824.09;;;33.75;31.63
76095;BME280;64821;13.710;100.604;2023-03-05T02:08:36;101823.19;;;33.93;31.84
76095;BME280;64821;13.710;100.604;2023-03-05T02:09:40;101814.31;;;33.96;32.10
76095;BME280;64821;13.710;100.604;2023-03-05T02:10:45;101825.19;;;34.15;32.04
76095;BME280;64821;13.710;100.604;2023-03-05T02:11:51;101817.75;;;34.29;31.32
76095;BME280;64821;13.710;100.604;2023-03-05T02:12:58;101830.97;;;34.41;31.71
76095;BME280;64821;13.710;100.604;2023-03-05T02:14:06;101822.94;;;34.31;31.65
76095;BME280;64821;13.710;100.604;2023-03-05T02:15:12;101840.38;;;34.12;30.91
76095;BME280;64821;13.710;100.604;2023-03-05T02:16:15;101829.28;;;34.04;31.51
76095;BME280;64821;13.710;100.604;2023-03-05T02:17:19;101834.66;;;34.09;31.26
76095;BME280;64821;13.710;100.604;2023-03-05T02:18:23;101829.38;;;34.12;31.25
76095;BME280;64821;13.710;100.604;2023-03-05T02:19:27;101834.25;;;34.02;31.32
76095;BME280;64821;13.710;100.604;2023-03-05T02:20:43;101835.34;;;33.73;31.74
76095;BME280;64821;13.710;100.604;2023-03-05T02:21:49;101833.25;;;33.98;31.87
76095;BME280;64821;13.710;100.604;2023-03-05T02:22:52;101804.03;;;34.02;31.19
76095;BME280;64821;13.710;100.604;2023-03-05T02:23:56;101834.16;;;34.34;31.39
76095;BME280;64821;13.710;100.604;2023-03-05T02:25:00;101827.22;;;34.37;31.63
76095;BME280;64821;13.710;100.604;2023-03-05T02:26:05;101825.47;;;34.41;31.44
76095;BME280;64821;13.710;100.604;2023-03-05T02:27:12;101823.66;;;34.23;31.30
76095;BME280;64821;13.710;100.604;2023-03-05T02:28:19;101826.59;;;34.40;30.93
76095;BME280;64821;13.710;100.604;2023-03-05T02:29:26;101834.00;;;34.53;31.18
76095;BME280;64821;13.710;100.604;2023-03-05T02:30:31;101832.72;;;34.37;31.54
76095;BME280;64821;13.710;100.604;2023-03-05T02:31:38;101828.97;;;34.33;31.41
76095;BME280;64821;13.710;100.604;2023-03-05T02:32:41;101833.28;;;34.47;30.99
76095;BME280;64821;13.710;100.604;2023-03-05T02:33:45;101817.03;;;34.10;31.35
76095;BME280;64821;13.710;100.604;2023-03-05T02:34:49;101828.28;;;34.27;31.44
76095;BME280;64821;13.710;100.604;2023-03-05T02:35:53;101835.75;;;34.49;31.28
76095;BME280;64821;13.710;100.604;2023-03-05T02:36:58;101839.81;;;34.51;31.26
76095;BME280;64821;13.710;100.604;2023-03-05T02:38:02;101836.25;;;34.51;31.25
76095;BME280;64821;13.710;100.604;2023-03-05T02:39:06;101832.53;;;34.69;30.96
76095;BME280;64821;13.710;100.604;2023-03-05T02:40:11;101832.53;;;34.69;30.80
76095;BME280;64821;13.710;100.604;2023-03-05T02:41:15;101827.94;;;34.78;30.78
76095;BME280;64821;13.710;100.604;2023-03-05T02:42:19;101833.00;;;34.85;31.13
76095;BME280;64821;13.710;100.604;2023-03-05T02:43:23;101833.19;;;34.88;31.21
76095;BME280;64821;13.710;100.604;2023-03-05T02:44:27;101845.06;;;34.98;30.52
76095;BME280;64821;13.710;100.604;2023-03-05T02:45:30;101833.63;;;35.04;31.09
76095;BME280;64821;13.710;100.604;2023-03-05T02:46:34;101839.09;;;34.96;29.99
76095;BME280;64821;13.710;100.604;2023-03-05T02:47:38;101838.63;;;34.80;30.36
76095;BME280;64821;13.710;100.604;2023-03-05T02:48:42;101851.09;;;34.64;31.20
76095;BME280;64821;13.710;100.604;2023-03-05T02:49:45;101826.63;;;34.76;31.02
76095;BME280;64821;13.710;100.604;2023-03-05T02:50:49;101843.34;;;34.66;30.87
76095;BME280;64821;13.710;100.604;2023-03-05T02:51:53;101841.28;;;34.71;31.10
76095;BME280;64821;13.710;100.604;2023-03-05T02:52:59;101825.00;;;34.75;30.48
76095;BME280;64821;13.710;100.604;2023-03-05T02:54:03;101830.19;;;34.99;30.04
76095;BME280;64821;13.710;100.604;2023-03-05T02:55:07;101835.44;;;35.09;30.13
76095;BME280;64821;13.710;100.604;2023-03-05T02:56:11;101835.88;;;35.02;29.92
76095;BME280;64821;13.710;100.604;2023-03-05T02:57:15;101838.00;;;34.83;29.93
76095;BME280;64821;13.710;100.604;2023-03-05T02:58:18;101804.03;;;34.87;30.13
76095;BME280;64821;13.710;100.604;2023-03-05T02:59:22;101839.06;;;35.18;29.99
76095;BME280;64821;13.710;100.604;2023-03-05T03:00:26;101838.91;;;35.14;30.31
76095;BME280;64821;13.710;100.604;2023-03-05T03:01:30;101842.25;;;35.11;30.08
76095;BME280;64821;13.710;100.604;2023-03-05T03:02:34;101841.81;;;35.18;29.79
76095;BME280;64821;13.710;100.604;2023-03-05T03:03:38;101836.72;;;35.25;29.78
76095;BME280;64821;13.710;100.604;2023-03-05T03:04:43;101837.63;;;35.20;29.25
76095;BME280;64821;13.710;100.604;2023-03-05T03:05:46;101837.78;;;35.15;29.78
76095;BME280;64821;13.710;100.604;2023-03-05T03:06:50;101837.22;;;35.05;29.50
76095;BME280;64821;13.710;100.604;2023-03-05T03:07:54;101833.97;;;34.67;29.83
76095;BME280;64821;13.710;100.604;2023-03-05T03:08:59;101839.66;;;34.70;30.00
76095;BME280;64821;13.710;100.604;2023-03-05T03:10:03;101843.97;;;34.76;29.56
76095;BME280;64821;13.710;100.604;2023-03-05T03:11:09;101837.34;;;34.64;29.52
76095;BME280;64821;13.710;100.604;2023-03-05T03:12:14;101837.66;;;34.62;29.76
76095;BME280;64821;13.710;100.604;2023-03-05T03:13:17;101838.53;;;34.85;30.00
76095;BME280;64821;13.710;100.604;2023-03-05T03:14:21;101830.69;;;34.78;29.45
76095;BME280;64821;13.710;100.604;2023-03-05T03:15:25;101833.75;;;34.77;29.05
76095;BME280;64821;13.710;100.604;2023-03-05T03:16:28;101827.63;;;35.02;28.99
76095;BME280;64821;13.710;100.604;2023-03-05T03:17:34;101815.84;;;35.10;29.76
76095;BME280;64821;13.710;100.604;2023-03-05T03:18:37;101823.81;;;35.34;29.73
76095;BME280;64821;13.710;100.604;2023-03-05T03:19:42;101814.16;;;35.23;28.88
76095;BME280;64821;13.710;100.604;2023-03-05T03:20:46;101823.34;;;35.41;29.18
76095;BME280;64821;13.710;100.604;2023-03-05T03:21:49;101818.66;;;35.19;29.38
76095;BME280;64821;13.710;100.604;2023-03-05T03:22:53;101824.97;;;34.97;28.45
76095;BME280;64821;13.710;100.604;2023-03-05T03:23:59;101806.66;;;34.93;28.94
76095;BME280;64821;13.710;100.604;2023-03-05T03:25:04;101821.16;;;35.07;28.48
76095;BME280;64821;13.710;100.604;2023-03-05T03:26:08;101824.34;;;35.22;28.09
76095;BME280;64821;13.710;100.604;2023-03-05T03:27:11;101812.63;;;35.17;27.93
76095;BME280;64821;13.710;100.604;2023-03-05T03:28:15;101821.78;;;35.26;28.45
76095;BME280;64821;13.710;100.604;2023-03-05T03:29:19;101817.44;;;35.25;28.40
76095;BME280;64821;13.710;100.604;2023-03-05T03:30:23;101813.91;;;35.33;28.76
76095;BME280;64821;13.710;100.604;2023-03-05T03:31:26;101820.72;;;35.36;28.66
76095;BME280;64821;13.710;100.604;2023-03-05T03:32:30;101811.38;;;35.45;28.87
76095;BME280;64821;13.710;100.604;2023-03-05T03:33:34;101820.09;;;35.39;29.19
76095;BME280;64821;13.710;100.604;2023-03-05T03:34:38;101799.69;;;35.40;28.73
76095;BME280;64821;13.710;100.604;2023-03-05T03:35:42;101803.16;;;35.54;28.84
76095;BME280;64821;13.710;100.604;2023-03-05T03:36:47;101799.75;;;35.57;28.36
76095;BME280;64821;13.710;100.604;2023-03-05T03:37:51;101817.78;;;35.32;28.61
76095;BME280;64821;13.710;100.604;2023-03-05T03:38:54;101811.69;;;35.44;29.08
76095;BME280;64821;13.710;100.604;2023-03-05T03:40:00;101814.53;;;35.30;28.56
76095;BME280;64821;13.710;100.604;2023-03-05T03:41:05;101796.31;;;35.51;28.32
76095;BME280;64821;13.710;100.604;2023-03-05T03:42:09;101801.91;;;35.69;28.50
76095;BME280;64821;13.710;100.604;2023-03-05T03:43:12;101798.31;;;35.59;28.41
76095;BME280;64821;13.710;100.604;2023-03-05T03:44:17;101793.34;;;35.39;27.90
76095;BME280;64821;13.710;100.604;2023-03-05T03:45:21;101794.50;;;35.47;28.19
76095;BME280;64821;13.710;100.604;2023-03-05T03:46:24;101790.34;;;35.58;28.33
76095;BME280;64821;13.710;100.604;2023-03-05T03:47:28;101788.19;;;35.46;28.64
76095;BME280;64821;13.710;100.604;2023-03-05T03:48:32;101779.47;;;35.53;28.46
76095;BME280;64821;13.710;100.604;2023-03-05T03:49:36;101781.16;;;35.71;27.97
76095;BME280;64821;13.710;100.604;2023-03-05T03:50:39;101785.34;;;35.69;28.76
76095;BME280;64821;13.710;100.604;2023-03-05T03:51:43;101781.56;;;35.56;28.82
76095;BME280;64821;13.710;100.604;2023-03-05T03:52:47;101749.78;;;35.50;28.57
76095;BME280;64821;13.710;100.604;2023-03-05T03:53:51;101786.22;;;35.78;28.11
76095;BME280;64821;13.710;100.604;2023-03-05T03:54:54;101777.16;;;35.86;28.15
76095;BME280;64821;13.710;100.604;2023-03-05T03:56:00;101779.44;;;35.84;28.40
76095;BME280;64821;13.710;100.604;2023-03-05T03:57:10;101777.72;;;35.66;28.96
76095;BME280;64821;13.710;100.604;2023-03-05T03:58:14;101777.41;;;35.67;28.48
76095;BME280;64821;13.710;100.604;2023-03-05T03:59:17;101765.00;;;35.87;28.36
76095;BME280;64821;13.710;100.604;2023-03-05T04:00:21;101757.72;;;35.91;27.88
76095;BME280;64821;13.710;100.604;2023-03-05T04:01:25;101765.53;;;36.06;28.34
76095;BME280;64821;13.710;100.604;2023-03-05T04:02:29;101759.84;;;36.03;27.70
76095;BME280;64821;13.710;100.604;2023-03-05T04:03:32;101772.88;;;35.71;29.18
76095;BME280;64821;13.710;100.604;2023-03-05T04:04:36;101760.53;;;35.60;28.21
76095;BME280;64821;13.710;100.604;2023-03-05T04:05:40;101756.63;;;35.52;28.68
76095;BME280;64821;13.710;100.604;2023-03-05T04:06:44;101756.56;;;35.75;28.30
76095;BME280;64821;13.710;100.604;2023-03-05T04:07:47;101752.31;;;35.77;28.10
76095;BME280;64821;13.710;100.604;2023-03-05T04:08:51;101752.00;;;35.79;28.79
76095;BME280;64821;13.710;100.604;2023-03-05T04:09:55;101750.91;;;35.49;28.07
76095;BME280;64821;13.710;100.604;2023-03-05T04:11:02;101748.63;;;35.82;27.96
76095;BME280;64821;13.710;100.604;2023-03-05T04:12:06;101746.50;;;35.87;27.41
76095;BME280;64821;13.710;100.604;2023-03-05T04:13:10;101747.34;;;35.96;28.20
76095;BME280;64821;13.710;100.604;2023-03-05T04:14:13;101738.13;;;36.10;27.32
76095;BME280;64821;13.710;100.604;2023-03-05T04:15:17;101735.53;;;36.13;27.90
76095;BME280;64821;13.710;100.604;2023-03-05T04:16:21;101725.34;;;36.22;27.59
76095;BME280;64821;13.710;100.604;2023-03-05T04:17:25;101721.91;;;36.25;28.08
76095;BME280;64821;13.710;100.604;2023-03-05T04:18:28;101731.63;;;36.14;27.72
76095;BME280;64821;13.710;100.604;2023-03-05T04:19:34;101728.34;;;35.95;27.90
76095;BME280;64821;13.710;100.604;2023-03-05T04:20:37;101729.34;;;36.08;27.49
76095;BME280;64821;13.710;100.604;2023-03-05T04:21:41;101701.28;;;36.06;27.71
76095;BME280;64821;13.710;100.604;2023-03-05T04:22:45;101681.66;;;35.90;27.54
76095;BME280;64821;13.710;100.604;2023-03-05T04:23:48;101704.22;;;36.26;27.75
76095;BME280;64821;13.710;100.604;2023-03-05T04:24:52;101721.13;;;36.42;28.14
76095;BME280;64821;13.710;100.604;2023-03-05T04:25:56;101702.13;;;36.32;27.61
76095;BME280;64821;13.710;100.604;2023-03-05T04:27:01;101712.03;;;36.42;27.56
76095;BME280;64821;13.710;100.604;2023-03-05T04:28:05;101710.53;;;36.36;27.58
76095;BME280;64821;13.710;100.604;2023-03-05T04:29:09;101706.50;;;36.42;27.19
76095;BME280;64821;13.710;100.604;2023-03-05T04:30:13;101705.00;;;36.44;27.72
76095;BME280;64821;13.710;100.604;2023-03-05T04:31:17;101704.69;;;36.20;27.36
76095;BME280;64821;13.710;100.604;2023-03-05T04:32:21;101701.44;;;36.01;27.41
76095;BME280;64821;13.710;100.604;2023-03-05T04:33:25;101693.66;;;36.20;27.23
76095;BME280;64821;13.710;100.604;2023-03-05T04:34:28;101696.09;;;36.13;27.82
76095;BME280;64821;13.710;100.604;2023-03-05T04:35:32;101694.16;;;36.13;27.13
76095;BME280;64821;13.710;100.604;2023-03-05T04:36:36;101698.38;;;35.93;27.31
76095;BME280;64821;13.710;100.604;2023-03-05T04:37:39;101688.28;;;36.06;27.23
76095;BME280;64821;13.710;100.604;2023-03-05T04:38:43;101682.63;;;36.11;26.85
76095;BME280;64821;13.710;100.604;2023-03-05T04:39:47;101695.44;;;35.90;27.45
76095;BME280;64821;13.710;100.604;2023-03-05T04:40:51;101692.19;;;36.05;27.48
76095;BME280;64821;13.710;100.604;2023-03-05T04:41:54;101692.03;;;35.93;27.08
76095;BME280;64821;13.710;100.604;2023-03-05T04:43:00;101679.19;;;35.80;26.80
76095;BME280;64821;13.710;100.604;2023-03-05T04:44:04;101681.31;;;35.91;26.85
76095;BME280;64821;13.710;100.604;2023-03-05T04:45:08;101684.41;;;36.07;27.05
76095;BME280;64821;13.710;100.604;2023-03-05T04:46:12;101683.94;;;36.14;26.64
76095;BME280;64821;13.710;100.604;2023-03-05T04:47:16;101673.84;;;36.35;26.45
76095;BME280;64821;13.710;100.604;2023-03-05T04:48:20;101676.44;;;36.49;26.86
76095;BME280;64821;13.710;100.604;2023-03-05T04:49:24;101660.06;;;36.52;26.83
76095;BME280;64821;13.710;100.604;2023-03-05T04:50:28;101667.97;;;36.54;26.98
76095;BME280;64821;13.710;100.604;2023-03-05T04:51:31;101659.22;;;36.60;26.50
76095;BME280;64821;13.710;100.604;2023-03-05T04:52:38;101655.44;;;36.65;26.11
76095;BME280;64821;13.710;100.604;2023-03-05T04:53:42;101658.69;;;36.67;25.96
76095;BME280;64821;13.710;100.604;2023-03-05T04:54:45;101667.06;;;36.41;26.16
76095;BME280;64821;13.710;100.604;2023-03-05T04:55:52;101659.75;;;36.02;25.57
76095;BME280;64821;13.710;100.604;2023-03-05T04:56:56;101657.63;;;36.25;25.63
76095;BME280;64821;13.710;100.604;2023-03-05T04:58:01;101658.59;;;36.46;26.03
76095;BME280;64821;13.710;100.604;2023-03-05T04:59:05;101650.59;;;36.53;26.10
76095;BME280;64821;13.710;100.604;2023-03-05T05:00:11;101642.13;;;36.67;25.86
76095;BME280;64821;13.710;100.604;2023-03-05T05:01:15;101647.66;;;36.67;25.80
76095;BME280;64821;13.710;100.604;2023-03-05T05:02:19;101638.88;;;36.74;25.91
76095;BME280;64821;13.710;100.604;2023-03-05T05:03:23;101638.78;;;36.44;25.86
76095;BME280;64821;13.710;100.604;2023-03-05T05:04:26;101632.78;;;36.51;25.83
76095;BME280;64821;13.710;100.604;2023-03-05T05:05:30;101630.03;;;36.51;26.06
76095;BME280;64821;13.710;100.604;2023-03-05T05:06:34;101625.59;;;36.58;26.29
76095;BME280;64821;13.710;100.604;2023-03-05T05:07:37;101624.75;;;36.66;26.56
76095;BME280;64821;13.710;100.604;2023-03-05T05:08:42;101582.13;;;36.47;26.24
76095;BME280;64821;13.710;100.604;2023-03-05T05:09:46;101628.16;;;36.81;26.04
76095;BME280;64821;13.710;100.604;2023-03-05T05:10:57;101624.88;;;36.87;25.80
76095;BME280;64821;13.710;100.604;2023-03-05T05:12:01;101612.81;;;37.00;26.06
76095;BME280;64821;13.710;100.604;2023-03-05T05:13:07;101613.91;;;37.08;26.09
76095;BME280;64821;13.710;100.604;2023-03-05T05:14:11;101591.75;;;36.87;26.13
76095;BME280;64821;13.710;100.604;2023-03-05T05:15:15;101617.13;;;37.10;25.71
76095;BME280;64821;13.710;100.604;2023-03-05T05:16:19;101603.50;;;37.05;25.97
76095;BME280;64821;13.710;100.604;2023-03-05T05:17:23;101613.31;;;36.94;26.05
76095;BME280;64821;13.710;100.604;2023-03-05T05:18:27;101601.28;;;36.98;25.97
76095;BME280;64821;13.710;100.604;2023-03-05T05:19:31;101603.59;;;36.88;26.64
76095;BME280;64821;13.710;100.604;2023-03-05T05:20:35;101570.50;;;36.79;25.71
76095;BME280;64821;13.710;100.604;2023-03-05T05:21:39;101601.69;;;36.80;25.64
76095;BME280;64821;13.710;100.604;2023-03-05T05:22:43;101568.28;;;36.73;26.06
76095;BME280;64821;13.710;100.604;2023-03-05T05:23:47;101574.84;;;36.89;25.64
76095;BME280;64821;13.710;100.604;2023-03-05T05:24:51;101585.19;;;37.00;25.45
76095;BME280;64821;13.710;100.604;2023-03-05T05:25:58;101578.03;;;36.99;26.31
76095;BME280;64821;13.710;100.604;2023-03-05T05:27:03;101591.13;;;36.82;26.43
76095;BME280;64821;13.710;100.604;2023-03-05T05:28:09;101585.88;;;36.89;25.81